Etusivu
METAR-TAF:

METAR-TAF

Lentoasemat :

Chapleau, Ontario, Kanada

Leveyspiiri: 47-49N, Pituuspiiri: 083-21W, korkeus merenpinnasta: 447 m

Tämänhetkinen sää

Tämä raportti tehtiin 7 tuntia ja 19 minuuttia sitten, kello 02.00 UTC
Tuuli 5 kn pohjoisesta
Lämpötila -5°C
Kosteus 79%
Ilmanpaine 1015 hPa
Näkyvyys: 24.1 km
selkeää

METAR: CYLD 250200Z 35005KT 15SM SKC M05/M08 A2998 RMK LAST STFD OBS/NEXT 251100 UTC SLP182

Aika: 04:19 (09:19 UTC)

Sääennuste

Tämä raportti tehtiin 13 tuntia ja 41 minuuttia sitten, kello 19.38 UTC
Ennuste voimassa 24. päivästä klo 20 UTC - 25. päivään klo 02 UTC
Tuuli 5 kn pohjoisesta
Näkyvyys: 10 km
Hajonneita pilviä 2500 ft:n korkeudessa
Ajoittain
24. päivästä klo 20 UTC - 25. päivään klo 02 UTC
Näkyvyys: 8.0 km
Pilvistä 2000 ft:n korkeudessa
heikkoja lumikuuroja

TAF: CYLD 241938Z 2420/2502 36005KT P6SM BKN025 TEMPO 2420/2502 5SM -SHSN OVC020 RMK NXT FCST WILL BE ISSUED AT 251245Z

Säähavainnot ja -ennusteet yli 4000 lentoasemalta (METAR- ja TAF-raportit).

Käytössä olevat sääasemat on merkitty karttaan keltaisilla ja punaisilla pisteillä.

Aseta hiiri pisteen päälle nähdäksesi sääaseman nimen.

Klikkaa sitten nähdäksesi säähavainnot ja -ennusteet.

Kartan vaihtaminen: klikkaa mustalla rastilla varustettuja vihreitä pisteitä, niin voit zoomata sisään; viivalla varustettua vihreää pistettä, niin voit zoomata ulos tai vihreitä nuolia, niin pääset viereisille kartoille.


METAR-TAF: